sensor_id;sensor_type;location;lat;lon;timestamp;P1;durP1;ratioP1;P2;durP2;ratioP2
6193;SDS011;3130;41.564;23.280;2023-01-09T00:01:15;29.70;;;22.63;;
6193;SDS011;3130;41.564;23.280;2023-01-09T00:03:44;33.33;;;21.27;;
6193;SDS011;3130;41.564;23.280;2023-01-09T00:06:11;31.10;;;20.30;;
6193;SDS011;3130;41.564;23.280;2023-01-09T00:08:39;32.60;;;22.10;;
6193;SDS011;3130;41.564;23.280;2023-01-09T00:11:06;37.67;;;23.20;;
6193;SDS011;3130;41.564;23.280;2023-01-09T00:13:34;33.80;;;22.73;;
6193;SDS011;3130;41.564;23.280;2023-01-09T00:16:02;33.60;;;23.07;;
6193;SDS011;3130;41.564;23.280;2023-01-09T00:18:31;35.23;;;23.33;;
6193;SDS011;3130;41.564;23.280;2023-01-09T00:20:59;38.00;;;24.87;;
6193;SDS011;3130;41.564;23.280;2023-01-09T00:23:26;39.17;;;23.97;;
6193;SDS011;3130;41.564;23.280;2023-01-09T00:26:00;42.87;;;26.30;;
6193;SDS011;3130;41.564;23.280;2023-01-09T00:28:28;41.93;;;25.70;;
6193;SDS011;3130;41.564;23.280;2023-01-09T00:30:55;38.37;;;23.80;;
6193;SDS011;3130;41.564;23.280;2023-01-09T00:33:23;35.73;;;24.83;;
6193;SDS011;3130;41.564;23.280;2023-01-09T00:35:55;32.00;;;23.13;;
6193;SDS011;3130;41.564;23.280;2023-01-09T00:38:22;34.30;;;23.83;;
6193;SDS011;3130;41.564;23.280;2023-01-09T00:40:50;39.50;;;24.13;;
6193;SDS011;3130;41.564;23.280;2023-01-09T00:43:17;37.07;;;23.00;;
6193;SDS011;3130;41.564;23.280;2023-01-09T00:45:46;33.33;;;23.27;;
6193;SDS011;3130;41.564;23.280;2023-01-09T00:48:14;36.40;;;25.53;;
6193;SDS011;3130;41.564;23.280;2023-01-09T00:50:49;32.10;;;22.77;;
6193;SDS011;3130;41.564;23.280;2023-01-09T00:53:19;35.27;;;22.90;;
6193;SDS011;3130;41.564;23.280;2023-01-09T00:55:49;36.60;;;25.13;;
6193;SDS011;3130;41.564;23.280;2023-01-09T00:58:17;50.47;;;28.97;;
6193;SDS011;3130;41.564;23.280;2023-01-09T01:00:45;50.27;;;31.90;;
6193;SDS011;3130;41.564;23.280;2023-01-09T01:03:12;54.17;;;32.60;;
6193;SDS011;3130;41.564;23.280;2023-01-09T01:05:39;48.20;;;30.57;;
6193;SDS011;3130;41.564;23.280;2023-01-09T01:08:25;44.27;;;26.53;;
6193;SDS011;3130;41.564;23.280;2023-01-09T01:10:53;43.47;;;28.50;;
6193;SDS011;3130;41.564;23.280;2023-01-09T01:13:20;41.77;;;27.47;;
6193;SDS011;3130;41.564;23.280;2023-01-09T01:15:47;47.57;;;28.97;;
6193;SDS011;3130;41.564;23.280;2023-01-09T01:18:14;46.83;;;27.67;;
6193;SDS011;3130;41.564;23.280;2023-01-09T01:20:42;48.13;;;28.73;;
6193;SDS011;3130;41.564;23.280;2023-01-09T01:23:10;47.27;;;26.80;;
6193;SDS011;3130;41.564;23.280;2023-01-09T01:25:41;40.77;;;27.17;;
6193;SDS011;3130;41.564;23.280;2023-01-09T01:28:08;40.40;;;24.87;;
6193;SDS011;3130;41.564;23.280;2023-01-09T01:30:39;43.27;;;24.20;;
6193;SDS011;3130;41.564;23.280;2023-01-09T01:33:07;38.20;;;25.57;;
6193;SDS011;3130;41.564;23.280;2023-01-09T01:35:36;38.43;;;24.83;;
6193;SDS011;3130;41.564;23.280;2023-01-09T01:38:04;41.30;;;24.37;;
6193;SDS011;3130;41.564;23.280;2023-01-09T01:40:31;41.70;;;24.70;;
6193;SDS011;3130;41.564;23.280;2023-01-09T01:43:00;39.90;;;24.00;;
6193;SDS011;3130;41.564;23.280;2023-01-09T01:45:27;41.07;;;24.27;;
6193;SDS011;3130;41.564;23.280;2023-01-09T01:47:58;39.20;;;23.23;;
6193;SDS011;3130;41.564;23.280;2023-01-09T01:50:31;36.43;;;24.40;;
6193;SDS011;3130;41.564;23.280;2023-01-09T01:53:03;36.13;;;23.57;;
6193;SDS011;3130;41.564;23.280;2023-01-09T01:55:35;41.33;;;23.93;;
6193;SDS011;3130;41.564;23.280;2023-01-09T01:58:10;44.27;;;25.80;;
6193;SDS011;3130;41.564;23.280;2023-01-09T02:00:44;34.80;;;23.47;;
6193;SDS011;3130;41.564;23.280;2023-01-09T02:03:14;32.37;;;20.90;;
6193;SDS011;3130;41.564;23.280;2023-01-09T02:05:43;36.20;;;23.63;;
6193;SDS011;3130;41.564;23.280;2023-01-09T02:08:11;32.00;;;21.80;;
6193;SDS011;3130;41.564;23.280;2023-01-09T02:10:38;29.83;;;19.33;;
6193;SDS011;3130;41.564;23.280;2023-01-09T02:13:05;30.30;;;19.37;;
6193;SDS011;3130;41.564;23.280;2023-01-09T02:15:39;30.93;;;17.83;;
6193;SDS011;3130;41.564;23.280;2023-01-09T02:21:14;32.60;;;19.30;;
6193;SDS011;3130;41.564;23.280;2023-01-09T02:24:06;30.53;;;20.70;;
6193;SDS011;3130;41.564;23.280;2023-01-09T02:27:12;27.63;;;19.87;;
6193;SDS011;3130;41.564;23.280;2023-01-09T02:30:13;26.80;;;17.70;;
6193;SDS011;3130;41.564;23.280;2023-01-09T02:32:57;32.20;;;19.60;;
6193;SDS011;3130;41.564;23.280;2023-01-09T02:35:33;38.30;;;23.60;;
6193;SDS011;3130;41.564;23.280;2023-01-09T02:38:21;31.00;;;19.17;;
6193;SDS011;3130;41.564;23.280;2023-01-09T02:40:55;26.63;;;20.77;;
6193;SDS011;3130;41.564;23.280;2023-01-09T02:43:27;26.93;;;18.70;;
6193;SDS011;3130;41.564;23.280;2023-01-09T02:45:57;28.77;;;19.57;;
6193;SDS011;3130;41.564;23.280;2023-01-09T02:48:24;28.27;;;18.87;;
6193;SDS011;3130;41.564;23.280;2023-01-09T02:50:54;30.47;;;18.43;;
6193;SDS011;3130;41.564;23.280;2023-01-09T02:56:34;23.07;;;17.63;;
6193;SDS011;3130;41.564;23.280;2023-01-09T02:59:24;27.60;;;19.93;;
6193;SDS011;3130;41.564;23.280;2023-01-09T03:02:05;29.27;;;19.70;;
6193;SDS011;3130;41.564;23.280;2023-01-09T03:04:41;30.30;;;20.17;;
6193;SDS011;3130;41.564;23.280;2023-01-09T03:07:19;27.60;;;19.27;;
6193;SDS011;3130;41.564;23.280;2023-01-09T03:09:55;23.63;;;17.93;;
6193;SDS011;3130;41.564;23.280;2023-01-09T03:12:27;25.00;;;18.37;;
6193;SDS011;3130;41.564;23.280;2023-01-09T03:14:57;26.10;;;18.97;;
6193;SDS011;3130;41.564;23.280;2023-01-09T03:17:29;28.17;;;19.57;;
6193;SDS011;3130;41.564;23.280;2023-01-09T03:20:01;28.43;;;19.87;;
6193;SDS011;3130;41.564;23.280;2023-01-09T03:22:33;29.57;;;19.07;;
6193;SDS011;3130;41.564;23.280;2023-01-09T03:25:00;28.67;;;19.23;;
6193;SDS011;3130;41.564;23.280;2023-01-09T03:27:28;31.27;;;19.03;;
6193;SDS011;3130;41.564;23.280;2023-01-09T03:29:55;26.53;;;18.60;;
6193;SDS011;3130;41.564;23.280;2023-01-09T03:32:22;30.50;;;19.47;;
6193;SDS011;3130;41.564;23.280;2023-01-09T03:34:53;29.10;;;19.90;;
6193;SDS011;3130;41.564;23.280;2023-01-09T03:37:22;27.93;;;18.63;;
6193;SDS011;3130;41.564;23.280;2023-01-09T03:39:51;30.20;;;18.67;;
6193;SDS011;3130;41.564;23.280;2023-01-09T03:42:19;26.43;;;17.23;;
6193;SDS011;3130;41.564;23.280;2023-01-09T03:44:46;27.23;;;19.43;;
6193;SDS011;3130;41.564;23.280;2023-01-09T03:47:26;29.03;;;19.70;;
6193;SDS011;3130;41.564;23.280;2023-01-09T03:49:55;25.70;;;19.47;;
6193;SDS011;3130;41.564;23.280;2023-01-09T03:52:22;26.77;;;18.30;;
6193;SDS011;3130;41.564;23.280;2023-01-09T03:54:52;34.47;;;18.97;;
6193;SDS011;3130;41.564;23.280;2023-01-09T03:57:23;31.00;;;21.70;;
6193;SDS011;3130;41.564;23.280;2023-01-09T03:59:52;32.30;;;21.30;;
6193;SDS011;3130;41.564;23.280;2023-01-09T04:02:21;31.47;;;22.07;;
6193;SDS011;3130;41.564;23.280;2023-01-09T04:04:56;33.20;;;21.83;;
6193;SDS011;3130;41.564;23.280;2023-01-09T04:07:28;42.90;;;26.23;;
6193;SDS011;3130;41.564;23.280;2023-01-09T04:09:55;39.63;;;27.37;;
6193;SDS011;3130;41.564;23.280;2023-01-09T04:12:31;38.17;;;25.50;;
6193;SDS011;3130;41.564;23.280;2023-01-09T04:14:58;40.70;;;27.10;;
6193;SDS011;3130;41.564;23.280;2023-01-09T04:17:26;46.03;;;30.23;;
6193;SDS011;3130;41.564;23.280;2023-01-09T04:19:53;42.97;;;28.27;;
6193;SDS011;3130;41.564;23.280;2023-01-09T04:22:27;41.37;;;28.70;;
6193;SDS011;3130;41.564;23.280;2023-01-09T04:24:55;36.13;;;24.13;;
6193;SDS011;3130;41.564;23.280;2023-01-09T04:27:28;30.47;;;22.33;;
6193;SDS011;3130;41.564;23.280;2023-01-09T04:30:01;33.43;;;23.10;;
6193;SDS011;3130;41.564;23.280;2023-01-09T04:32:28;34.87;;;22.27;;
6193;SDS011;3130;41.564;23.280;2023-01-09T04:34:55;34.97;;;23.17;;
6193;SDS011;3130;41.564;23.280;2023-01-09T04:37:22;35.97;;;24.27;;
6193;SDS011;3130;41.564;23.280;2023-01-09T04:39:52;38.97;;;24.80;;
6193;SDS011;3130;41.564;23.280;2023-01-09T04:42:20;37.00;;;25.20;;
6193;SDS011;3130;41.564;23.280;2023-01-09T04:44:47;35.33;;;24.87;;
6193;SDS011;3130;41.564;23.280;2023-01-09T04:47:18;33.07;;;23.37;;
6193;SDS011;3130;41.564;23.280;2023-01-09T04:49:55;34.30;;;23.33;;
6193;SDS011;3130;41.564;23.280;2023-01-09T04:52:31;34.60;;;23.43;;
6193;SDS011;3130;41.564;23.280;2023-01-09T04:55:02;38.40;;;23.50;;
6193;SDS011;3130;41.564;23.280;2023-01-09T04:57:38;37.40;;;23.83;;
6193;SDS011;3130;41.564;23.280;2023-01-09T05:00:14;40.37;;;24.13;;
6193;SDS011;3130;41.564;23.280;2023-01-09T05:02:49;40.70;;;24.97;;
6193;SDS011;3130;41.564;23.280;2023-01-09T05:05:42;43.13;;;28.67;;
6193;SDS011;3130;41.564;23.280;2023-01-09T05:08:21;40.03;;;29.03;;
6193;SDS011;3130;41.564;23.280;2023-01-09T05:10:54;35.67;;;26.50;;
6193;SDS011;3130;41.564;23.280;2023-01-09T05:13:33;38.77;;;28.10;;
6193;SDS011;3130;41.564;23.280;2023-01-09T05:16:16;50.97;;;28.93;;
6193;SDS011;3130;41.564;23.280;2023-01-09T05:19:09;39.37;;;27.80;;
6193;SDS011;3130;41.564;23.280;2023-01-09T05:21:42;41.13;;;28.97;;
6193;SDS011;3130;41.564;23.280;2023-01-09T05:27:31;44.23;;;28.60;;
6193;SDS011;3130;41.564;23.280;2023-01-09T05:30:08;38.70;;;26.63;;
6193;SDS011;3130;41.564;23.280;2023-01-09T05:32:40;34.70;;;25.33;;
6193;SDS011;3130;41.564;23.280;2023-01-09T05:35:10;39.00;;;26.73;;
6193;SDS011;3130;41.564;23.280;2023-01-09T05:37:51;36.87;;;23.83;;
6193;SDS011;3130;41.564;23.280;2023-01-09T05:40:20;37.50;;;25.47;;
6193;SDS011;3130;41.564;23.280;2023-01-09T05:42:50;39.20;;;26.17;;
6193;SDS011;3130;41.564;23.280;2023-01-09T05:45:19;38.37;;;24.60;;
6193;SDS011;3130;41.564;23.280;2023-01-09T05:47:47;44.17;;;28.47;;
6193;SDS011;3130;41.564;23.280;2023-01-09T05:50:14;39.97;;;26.63;;
6193;SDS011;3130;41.564;23.280;2023-01-09T05:52:41;35.70;;;25.30;;
6193;SDS011;3130;41.564;23.280;2023-01-09T05:55:09;47.43;;;25.83;;
6193;SDS011;3130;41.564;23.280;2023-01-09T05:57:39;39.37;;;28.37;;
6193;SDS011;3130;41.564;23.280;2023-01-09T06:00:06;39.27;;;24.67;;
6193;SDS011;3130;41.564;23.280;2023-01-09T06:02:34;34.60;;;24.17;;
6193;SDS011;3130;41.564;23.280;2023-01-09T06:05:01;30.50;;;22.80;;
6193;SDS011;3130;41.564;23.280;2023-01-09T06:07:29;37.93;;;23.70;;
6193;SDS011;3130;41.564;23.280;2023-01-09T06:09:58;40.27;;;25.57;;
6193;SDS011;3130;41.564;23.280;2023-01-09T06:12:25;38.20;;;24.70;;
6193;SDS011;3130;41.564;23.280;2023-01-09T06:14:54;33.80;;;24.13;;
6193;SDS011;3130;41.564;23.280;2023-01-09T06:17:21;48.60;;;32.97;;
6193;SDS011;3130;41.564;23.280;2023-01-09T06:19:48;48.13;;;32.10;;
6193;SDS011;3130;41.564;23.280;2023-01-09T06:22:16;51.80;;;36.90;;
6193;SDS011;3130;41.564;23.280;2023-01-09T06:24:43;54.27;;;38.87;;
6193;SDS011;3130;41.564;23.280;2023-01-09T06:27:10;56.53;;;40.73;;
6193;SDS011;3130;41.564;23.280;2023-01-09T06:29:38;62.43;;;38.00;;
6193;SDS011;3130;41.564;23.280;2023-01-09T06:32:06;59.07;;;36.80;;
6193;SDS011;3130;41.564;23.280;2023-01-09T06:34:33;53.60;;;38.03;;
6193;SDS011;3130;41.564;23.280;2023-01-09T06:37:00;58.50;;;37.40;;
6193;SDS011;3130;41.564;23.280;2023-01-09T06:39:27;49.07;;;35.20;;
6193;SDS011;3130;41.564;23.280;2023-01-09T06:41:54;50.53;;;34.60;;
6193;SDS011;3130;41.564;23.280;2023-01-09T06:44:21;64.10;;;38.90;;
6193;SDS011;3130;41.564;23.280;2023-01-09T06:46:48;62.10;;;38.13;;
6193;SDS011;3130;41.564;23.280;2023-01-09T06:49:17;52.53;;;37.27;;
6193;SDS011;3130;41.564;23.280;2023-01-09T06:51:47;71.70;;;43.97;;
6193;SDS011;3130;41.564;23.280;2023-01-09T06:54:15;70.37;;;44.50;;
6193;SDS011;3130;41.564;23.280;2023-01-09T06:56:43;75.13;;;43.43;;
6193;SDS011;3130;41.564;23.280;2023-01-09T06:59:10;75.93;;;45.83;;
6193;SDS011;3130;41.564;23.280;2023-01-09T07:01:38;79.33;;;46.50;;
6193;SDS011;3130;41.564;23.280;2023-01-09T07:04:06;75.57;;;49.43;;
6193;SDS011;3130;41.564;23.280;2023-01-09T07:06:35;81.37;;;48.40;;
6193;SDS011;3130;41.564;23.280;2023-01-09T07:09:03;92.07;;;53.37;;
6193;SDS011;3130;41.564;23.280;2023-01-09T07:11:30;101.97;;;62.07;;
6193;SDS011;3130;41.564;23.280;2023-01-09T07:13:57;98.33;;;59.63;;
6193;SDS011;3130;41.564;23.280;2023-01-09T07:16:25;107.47;;;60.93;;
6193;SDS011;3130;41.564;23.280;2023-01-09T07:18:52;93.20;;;53.30;;
6193;SDS011;3130;41.564;23.280;2023-01-09T07:21:19;85.70;;;54.67;;
6193;SDS011;3130;41.564;23.280;2023-01-09T07:23:47;73.13;;;47.90;;
6193;SDS011;3130;41.564;23.280;2023-01-09T07:26:14;76.70;;;48.10;;
6193;SDS011;3130;41.564;23.280;2023-01-09T07:28:41;78.10;;;48.17;;
6193;SDS011;3130;41.564;23.280;2023-01-09T07:31:08;68.03;;;46.47;;
6193;SDS011;3130;41.564;23.280;2023-01-09T07:33:36;87.90;;;54.57;;
6193;SDS011;3130;41.564;23.280;2023-01-09T07:36:04;73.73;;;48.73;;
6193;SDS011;3130;41.564;23.280;2023-01-09T07:38:32;66.43;;;44.03;;
6193;SDS011;3130;41.564;23.280;2023-01-09T07:41:01;79.93;;;51.43;;
6193;SDS011;3130;41.564;23.280;2023-01-09T07:43:28;87.73;;;53.57;;
6193;SDS011;3130;41.564;23.280;2023-01-09T07:45:55;82.53;;;49.90;;
6193;SDS011;3130;41.564;23.280;2023-01-09T07:48:22;89.63;;;52.37;;
6193;SDS011;3130;41.564;23.280;2023-01-09T07:50:49;72.43;;;47.23;;
6193;SDS011;3130;41.564;23.280;2023-01-09T07:53:17;51.30;;;36.63;;
6193;SDS011;3130;41.564;23.280;2023-01-09T07:55:44;60.77;;;41.67;;
6193;SDS011;3130;41.564;23.280;2023-01-09T07:58:13;72.63;;;43.17;;
6193;SDS011;3130;41.564;23.280;2023-01-09T08:00:40;65.67;;;44.13;;
6193;SDS011;3130;41.564;23.280;2023-01-09T08:03:08;74.63;;;47.83;;
6193;SDS011;3130;41.564;23.280;2023-01-09T08:05:35;70.97;;;46.03;;
6193;SDS011;3130;41.564;23.280;2023-01-09T08:08:02;73.27;;;47.17;;
6193;SDS011;3130;41.564;23.280;2023-01-09T08:10:29;69.93;;;45.87;;
6193;SDS011;3130;41.564;23.280;2023-01-09T08:12:56;71.90;;;46.70;;
6193;SDS011;3130;41.564;23.280;2023-01-09T08:15:26;62.13;;;45.53;;
6193;SDS011;3130;41.564;23.280;2023-01-09T08:17:53;67.27;;;44.80;;
6193;SDS011;3130;41.564;23.280;2023-01-09T08:20:20;77.40;;;46.87;;
6193;SDS011;3130;41.564;23.280;2023-01-09T08:22:48;73.17;;;45.93;;
6193;SDS011;3130;41.564;23.280;2023-01-09T08:25:17;57.80;;;38.80;;
6193;SDS011;3130;41.564;23.280;2023-01-09T08:27:45;62.90;;;44.23;;
6193;SDS011;3130;41.564;23.280;2023-01-09T08:30:12;62.27;;;41.37;;
6193;SDS011;3130;41.564;23.280;2023-01-09T08:32:41;57.80;;;40.30;;
6193;SDS011;3130;41.564;23.280;2023-01-09T08:35:09;53.03;;;37.83;;
6193;SDS011;3130;41.564;23.280;2023-01-09T08:37:36;52.60;;;36.43;;
6193;SDS011;3130;41.564;23.280;2023-01-09T08:40:04;58.87;;;37.93;;
6193;SDS011;3130;41.564;23.280;2023-01-09T08:42:31;98.47;;;59.23;;
6193;SDS011;3130;41.564;23.280;2023-01-09T08:45:16;120.03;;;63.70;;
6193;SDS011;3130;41.564;23.280;2023-01-09T08:48:02;102.10;;;57.33;;
6193;SDS011;3130;41.564;23.280;2023-01-09T08:50:30;104.10;;;66.33;;
6193;SDS011;3130;41.564;23.280;2023-01-09T08:52:57;91.50;;;59.13;;
6193;SDS011;3130;41.564;23.280;2023-01-09T08:55:24;115.67;;;64.10;;
6193;SDS011;3130;41.564;23.280;2023-01-09T08:57:52;116.67;;;71.73;;
6193;SDS011;3130;41.564;23.280;2023-01-09T09:00:21;102.23;;;62.73;;
6193;SDS011;3130;41.564;23.280;2023-01-09T09:02:50;89.53;;;59.03;;
6193;SDS011;3130;41.564;23.280;2023-01-09T09:05:20;94.07;;;60.87;;
6193;SDS011;3130;41.564;23.280;2023-01-09T09:07:47;98.87;;;56.87;;
6193;SDS011;3130;41.564;23.280;2023-01-09T09:10:15;82.80;;;52.97;;
6193;SDS011;3130;41.564;23.280;2023-01-09T09:12:43;94.87;;;55.87;;
6193;SDS011;3130;41.564;23.280;2023-01-09T09:15:13;83.23;;;57.97;;
6193;SDS011;3130;41.564;23.280;2023-01-09T09:17:48;88.37;;;56.97;;
6193;SDS011;3130;41.564;23.280;2023-01-09T09:20:17;103.57;;;66.83;;
6193;SDS011;3130;41.564;23.280;2023-01-09T09:22:46;99.13;;;69.60;;
6193;SDS011;3130;41.564;23.280;2023-01-09T09:25:15;123.67;;;75.67;;
6193;SDS011;3130;41.564;23.280;2023-01-09T09:27:42;111.10;;;76.10;;
6193;SDS011;3130;41.564;23.280;2023-01-09T09:30:10;105.73;;;72.23;;
6193;SDS011;3130;41.564;23.280;2023-01-09T09:32:39;120.63;;;80.23;;
6193;SDS011;3130;41.564;23.280;2023-01-09T09:35:07;103.97;;;71.00;;
6193;SDS011;3130;41.564;23.280;2023-01-09T09:37:36;104.37;;;70.13;;
6193;SDS011;3130;41.564;23.280;2023-01-09T09:40:05;85.67;;;54.57;;
6193;SDS011;3130;41.564;23.280;2023-01-09T09:46:01;69.03;;;45.83;;
6193;SDS011;3130;41.564;23.280;2023-01-09T09:48:37;67.67;;;46.30;;
6193;SDS011;3130;41.564;23.280;2023-01-09T09:54:06;64.00;;;41.70;;
6193;SDS011;3130;41.564;23.280;2023-01-09T09:56:39;66.40;;;45.60;;
6193;SDS011;3130;41.564;23.280;2023-01-09T09:59:14;78.17;;;49.47;;
6193;SDS011;3130;41.564;23.280;2023-01-09T10:01:47;59.77;;;42.63;;
6193;SDS011;3130;41.564;23.280;2023-01-09T10:04:19;61.00;;;40.43;;
6193;SDS011;3130;41.564;23.280;2023-01-09T10:06:50;54.80;;;35.47;;
6193;SDS011;3130;41.564;23.280;2023-01-09T10:09:28;46.23;;;33.10;;
6193;SDS011;3130;41.564;23.280;2023-01-09T10:12:12;42.90;;;28.70;;
6193;SDS011;3130;41.564;23.280;2023-01-09T10:14:51;39.73;;;28.63;;
6193;SDS011;3130;41.564;23.280;2023-01-09T10:17:25;36.30;;;26.40;;
6193;SDS011;3130;41.564;23.280;2023-01-09T10:20:21;38.50;;;28.80;;
6193;SDS011;3130;41.564;23.280;2023-01-09T10:23:16;34.80;;;26.60;;
6193;SDS011;3130;41.564;23.280;2023-01-09T10:26:03;35.63;;;25.47;;
6193;SDS011;3130;41.564;23.280;2023-01-09T10:28:44;38.53;;;25.80;;
6193;SDS011;3130;41.564;23.280;2023-01-09T10:31:21;35.10;;;24.77;;
6193;SDS011;3130;41.564;23.280;2023-01-09T10:33:57;32.13;;;23.03;;
6193;SDS011;3130;41.564;23.280;2023-01-09T10:36:52;34.17;;;22.27;;
6193;SDS011;3130;41.564;23.280;2023-01-09T10:39:26;31.47;;;22.17;;
6193;SDS011;3130;41.564;23.280;2023-01-09T10:42:03;29.37;;;21.97;;
6193;SDS011;3130;41.564;23.280;2023-01-09T10:44:37;35.40;;;24.13;;
6193;SDS011;3130;41.564;23.280;2023-01-09T10:47:13;32.30;;;21.70;;
6193;SDS011;3130;41.564;23.280;2023-01-09T10:49:42;28.40;;;22.13;;
6193;SDS011;3130;41.564;23.280;2023-01-09T10:52:13;33.37;;;22.97;;
6193;SDS011;3130;41.564;23.280;2023-01-09T10:54:45;25.60;;;20.03;;
6193;SDS011;3130;41.564;23.280;2023-01-09T10:57:25;30.87;;;21.23;;
6193;SDS011;3130;41.564;23.280;2023-01-09T11:00:04;28.90;;;20.20;;
6193;SDS011;3130;41.564;23.280;2023-01-09T11:02:33;26.10;;;17.97;;
6193;SDS011;3130;41.564;23.280;2023-01-09T11:05:01;26.33;;;19.33;;
6193;SDS011;3130;41.564;23.280;2023-01-09T11:07:29;26.33;;;19.37;;
6193;SDS011;3130;41.564;23.280;2023-01-09T11:10:00;27.60;;;19.47;;
6193;SDS011;3130;41.564;23.280;2023-01-09T11:12:31;25.53;;;19.20;;
6193;SDS011;3130;41.564;23.280;2023-01-09T11:15:16;30.73;;;19.70;;
6193;SDS011;3130;41.564;23.280;2023-01-09T11:17:53;28.77;;;19.03;;
6193;SDS011;3130;41.564;23.280;2023-01-09T11:20:27;25.07;;;18.97;;
6193;SDS011;3130;41.564;23.280;2023-01-09T11:22:56;31.40;;;21.23;;
6193;SDS011;3130;41.564;23.280;2023-01-09T11:25:25;25.07;;;19.37;;
6193;SDS011;3130;41.564;23.280;2023-01-09T11:28:04;26.17;;;20.00;;
6193;SDS011;3130;41.564;23.280;2023-01-09T11:30:33;26.37;;;19.17;;
6193;SDS011;3130;41.564;23.280;2023-01-09T11:33:01;25.73;;;18.13;;
6193;SDS011;3130;41.564;23.280;2023-01-09T11:35:47;28.27;;;20.37;;
6193;SDS011;3130;41.564;23.280;2023-01-09T11:38:21;24.87;;;19.13;;
6193;SDS011;3130;41.564;23.280;2023-01-09T11:40:49;31.37;;;22.20;;
6193;SDS011;3130;41.564;23.280;2023-01-09T11:43:20;34.97;;;25.57;;
6193;SDS011;3130;41.564;23.280;2023-01-09T11:45:55;27.47;;;20.50;;
6193;SDS011;3130;41.564;23.280;2023-01-09T11:48:27;27.30;;;20.17;;
6193;SDS011;3130;41.564;23.280;2023-01-09T11:50:57;34.33;;;21.37;;
6193;SDS011;3130;41.564;23.280;2023-01-09T11:53:25;28.57;;;19.40;;
6193;SDS011;3130;41.564;23.280;2023-01-09T11:55:55;27.27;;;21.30;;
6193;SDS011;3130;41.564;23.280;2023-01-09T11:58:28;24.53;;;19.23;;
6193;SDS011;3130;41.564;23.280;2023-01-09T12:01:03;21.43;;;18.83;;
6193;SDS011;3130;41.564;23.280;2023-01-09T12:03:47;28.80;;;18.93;;
6193;SDS011;3130;41.564;23.280;2023-01-09T12:06:26;24.20;;;17.47;;
6193;SDS011;3130;41.564;23.280;2023-01-09T12:09:02;24.87;;;17.80;;
6193;SDS011;3130;41.564;23.280;2023-01-09T12:11:32;24.20;;;18.07;;
6193;SDS011;3130;41.564;23.280;2023-01-09T12:14:18;28.33;;;19.57;;
6193;SDS011;3130;41.564;23.280;2023-01-09T12:17:06;26.80;;;19.83;;
6193;SDS011;3130;41.564;23.280;2023-01-09T12:19:58;24.10;;;19.27;;
6193;SDS011;3130;41.564;23.280;2023-01-09T12:22:37;27.17;;;18.83;;
6193;SDS011;3130;41.564;23.280;2023-01-09T12:25:20;25.20;;;16.57;;
6193;SDS011;3130;41.564;23.280;2023-01-09T12:28:03;23.60;;;17.37;;
6193;SDS011;3130;41.564;23.280;2023-01-09T12:30:46;23.03;;;17.07;;
6193;SDS011;3130;41.564;23.280;2023-01-09T12:33:30;20.33;;;15.20;;
6193;SDS011;3130;41.564;23.280;2023-01-09T12:36:11;22.80;;;16.53;;
6193;SDS011;3130;41.564;23.280;2023-01-09T12:38:47;24.40;;;17.50;;
6193;SDS011;3130;41.564;23.280;2023-01-09T12:41:24;17.97;;;14.60;;
6193;SDS011;3130;41.564;23.280;2023-01-09T12:47:03;19.27;;;14.67;;
6193;SDS011;3130;41.564;23.280;2023-01-09T12:49:45;16.37;;;12.20;;
6193;SDS011;3130;41.564;23.280;2023-01-09T12:52:27;17.50;;;13.53;;
6193;SDS011;3130;41.564;23.280;2023-01-09T12:55:02;19.27;;;14.93;;
6193;SDS011;3130;41.564;23.280;2023-01-09T12:57:41;18.40;;;13.37;;
6193;SDS011;3130;41.564;23.280;2023-01-09T13:00:12;16.70;;;14.20;;
6193;SDS011;3130;41.564;23.280;2023-01-09T13:02:46;18.27;;;14.53;;
6193;SDS011;3130;41.564;23.280;2023-01-09T13:05:21;21.77;;;16.73;;
6193;SDS011;3130;41.564;23.280;2023-01-09T13:07:52;26.03;;;15.07;;
6193;SDS011;3130;41.564;23.280;2023-01-09T13:10:26;22.90;;;16.40;;
6193;SDS011;3130;41.564;23.280;2023-01-09T13:12:57;22.47;;;15.57;;
6193;SDS011;3130;41.564;23.280;2023-01-09T13:15:31;17.90;;;14.20;;
6193;SDS011;3130;41.564;23.280;2023-01-09T13:18:06;21.43;;;14.07;;
6193;SDS011;3130;41.564;23.280;2023-01-09T13:20:39;20.87;;;14.90;;
6193;SDS011;3130;41.564;23.280;2023-01-09T13:23:12;20.87;;;15.60;;
6193;SDS011;3130;41.564;23.280;2023-01-09T13:25:45;20.17;;;15.20;;
6193;SDS011;3130;41.564;23.280;2023-01-09T13:28:16;22.93;;;14.93;;
6193;SDS011;3130;41.564;23.280;2023-01-09T13:33:39;22.07;;;17.53;;
6193;SDS011;3130;41.564;23.280;2023-01-09T13:36:18;25.47;;;18.20;;
6193;SDS011;3130;41.564;23.280;2023-01-09T13:38:49;22.80;;;17.10;;
6193;SDS011;3130;41.564;23.280;2023-01-09T13:41:16;25.07;;;18.27;;
6193;SDS011;3130;41.564;23.280;2023-01-09T13:44:01;23.47;;;18.47;;
6193;SDS011;3130;41.564;23.280;2023-01-09T13:46:34;25.40;;;18.37;;
6193;SDS011;3130;41.564;23.280;2023-01-09T13:49:08;24.47;;;19.30;;
6193;SDS011;3130;41.564;23.280;2023-01-09T13:51:57;24.60;;;18.10;;
6193;SDS011;3130;41.564;23.280;2023-01-09T13:57:31;27.60;;;19.67;;
6193;SDS011;3130;41.564;23.280;2023-01-09T14:03:05;23.10;;;16.20;;
6193;SDS011;3130;41.564;23.280;2023-01-09T14:08:36;24.20;;;17.70;;
6193;SDS011;3130;41.564;23.280;2023-01-09T14:11:07;21.47;;;15.57;;
6193;SDS011;3130;41.564;23.280;2023-01-09T14:13:37;28.67;;;18.87;;
6193;SDS011;3130;41.564;23.280;2023-01-09T14:16:14;26.73;;;19.73;;
6193;SDS011;3130;41.564;23.280;2023-01-09T14:18:45;26.57;;;17.63;;
6193;SDS011;3130;41.564;23.280;2023-01-09T14:21:16;28.60;;;19.83;;
6193;SDS011;3130;41.564;23.280;2023-01-09T14:23:47;36.43;;;22.10;;
6193;SDS011;3130;41.564;23.280;2023-01-09T14:26:19;30.37;;;22.43;;
6193;SDS011;3130;41.564;23.280;2023-01-09T14:28:48;39.13;;;25.67;;
6193;SDS011;3130;41.564;23.280;2023-01-09T14:34:16;28.40;;;21.10;;
6193;SDS011;3130;41.564;23.280;2023-01-09T14:36:53;30.67;;;21.80;;
6193;SDS011;3130;41.564;23.280;2023-01-09T14:39:25;35.37;;;24.30;;
6193;SDS011;3130;41.564;23.280;2023-01-09T14:41:54;32.77;;;22.83;;
6193;SDS011;3130;41.564;23.280;2023-01-09T14:44:31;31.67;;;22.67;;
6193;SDS011;3130;41.564;23.280;2023-01-09T14:47:08;34.53;;;24.33;;
6193;SDS011;3130;41.564;23.280;2023-01-09T14:49:42;40.63;;;27.07;;
6193;SDS011;3130;41.564;23.280;2023-01-09T14:52:20;29.13;;;22.17;;
6193;SDS011;3130;41.564;23.280;2023-01-09T14:54:50;45.93;;;28.83;;
6193;SDS011;3130;41.564;23.280;2023-01-09T14:57:22;48.73;;;30.53;;
6193;SDS011;3130;41.564;23.280;2023-01-09T14:59:54;55.37;;;32.53;;
6193;SDS011;3130;41.564;23.280;2023-01-09T15:02:25;42.40;;;27.47;;
6193;SDS011;3130;41.564;23.280;2023-01-09T15:04:55;38.13;;;25.80;;
6193;SDS011;3130;41.564;23.280;2023-01-09T15:07:31;30.27;;;21.13;;
6193;SDS011;3130;41.564;23.280;2023-01-09T15:10:04;30.10;;;22.07;;
6193;SDS011;3130;41.564;23.280;2023-01-09T15:12:33;29.00;;;22.30;;
6193;SDS011;3130;41.564;23.280;2023-01-09T15:15:01;31.03;;;21.87;;
6193;SDS011;3130;41.564;23.280;2023-01-09T15:17:29;31.73;;;21.50;;
6193;SDS011;3130;41.564;23.280;2023-01-09T15:20:00;32.40;;;22.77;;
6193;SDS011;3130;41.564;23.280;2023-01-09T15:22:32;30.80;;;22.33;;
6193;SDS011;3130;41.564;23.280;2023-01-09T15:25:11;29.07;;;20.53;;
6193;SDS011;3130;41.564;23.280;2023-01-09T15:27:47;30.17;;;19.30;;
6193;SDS011;3130;41.564;23.280;2023-01-09T15:30:15;33.87;;;20.53;;
6193;SDS011;3130;41.564;23.280;2023-01-09T15:32:48;23.67;;;19.13;;
6193;SDS011;3130;41.564;23.280;2023-01-09T15:35:15;24.53;;;19.63;;